Meteo Giornale » Osservazioni meteo Stati Uniti (USA) » Manitowoc
ore: 13:56 - Osservazioni Meteo Manitowoc
Lat. 44° 8' N Lon. 87° 41' W Alt. 198 metri s.l.m.
0 °C
Nuvoloso
Temp. 24 Ore
0 °C
31 °C
Sud-Est
13 Km/h
Dew point 0 °C
Umidità 83 %
Visibilità 11 Km
Il sole sorge alle ore 06:14
Il sole tramonta alle ore 19:27
| Data e Ora | Cielo e Fenomeni | T °C | DP °C | Um. % | Pres. hPa | Vis. km | Vento km/h | |
|---|---|---|---|---|---|---|---|---|
| Oggi h: 13:56 | Nuvoloso | 0 | 0 | 83 | 1012 | 11 | SE 13 | |
| Oggi h: 13:49 | Nuvoloso | 0 | 0 | 88 | 1013 | 13 | SE 13 | |
| Oggi h: 12:56 | Sereno | 0 | 0 | 78 | 1013 | 10 | SE 11.1 | |
| Oggi h: 11:56 | Sereno | 0 | 0 | 94 | 1014 | 10 | E/SE 9.3 | |
| Oggi h: 10:56 | Foschia | 0 | 0 | 49 | 1014 | 10 | E 9.3 | |
| Oggi h: 09:56 | Sereno | 27 | 26 | 94 | 1014 | 10 | S/SE 13 | |
| Oggi h: 09:23 | Foschia | 27 | 27 | 100 | 1014 | 10 | N 0 | |
| Oggi h: 08:56 | Sereno | 27 | 27 | 100 | 1014 | 10 | N 5.5 | |
| Oggi h: 07:56 | Sereno | 24 | 0 | 20 | 1014 | 13 | O/NO 7.4 | |
| Oggi h: 06:56 | Foschia | 23 | 0 | 21 | 1013 | 8 | N 5.5 | |
| Oggi h: 05:56 | Foschia | 23 | 0 | 21 | 1012 | 10 | N 5.5 | |
| Oggi h: 04:56 | Sereno | 23 | 0 | 21 | 1012 | 14 | O 7.4 | |
| Oggi h: 03:56 | Sereno | 24 | 0 | 20 | 1012 | 10 | O 11.1 | |
| Oggi h: 02:56 | Sereno | 24 | 0 | 20 | 1012 | 10 | O 11.1 | |
| Oggi h: 01:56 | Sereno | 24 | 0 | 20 | 1012 | 10 | N 5.5 | |
| Oggi h: 00:56 | Sereno | 24 | 24 | 100 | 1012 | 10 | N 0 | |
| Ieri h: 23:56 | Sereno | 25 | 25 | 100 | 1012 | 10 | O/SO 9.3 | |
| Ieri h: 22:56 | Poco Nuvoloso | 26 | 26 | 100 | 1012 | 10 | SO 7.4 | |
| Ieri h: 21:56 | Sereno | 26 | 26 | 100 | 1012 | 10 | N 5.5 | |
| Ieri h: 20:56 | Sereno | 27 | 26 | 94 | 1012 | 10 | SO 7.4 | |
| Ieri h: 19:56 | Foschia | 26 | 26 | 100 | 1011 | 5 | SO 7.4 | |
| Ieri h: 18:56 | Sereno | 26 | 24 | 88 | 1011 | 10 | SO 7.4 | |
| Ieri h: 17:56 | Sereno | 30 | 24 | 70 | 1010 | 10 | N 0 | |
| Ieri h: 16:56 | Sereno | 31 | 23 | 62 | 1010 | 10 | O 11.1 | |
| Ieri h: 15:56 | Sereno | 31 | 24 | 66 | 1010 | 10 | O 14.8 | |
| Ieri h: 14:56 | Sereno | 31 | 23 | 62 | 1010 | 10 | O/SO 13 | |



